createdAt,value
2018-01-28T00:02:05.592Z,7.95
2018-01-28T00:04:32.538Z,7.85
2018-01-28T00:06:59.443Z,9.55
2018-01-28T00:09:27.158Z,9.07
2018-01-28T00:11:54.077Z,7.53
2018-01-28T00:14:21.003Z,11.57
2018-01-28T00:16:48.692Z,10.10
2018-01-28T00:19:15.627Z,7.47
2018-01-28T00:21:42.534Z,7.12
2018-01-28T00:24:10.427Z,6.45
2018-01-28T00:26:37.338Z,6.57
2018-01-28T00:29:04.268Z,9.80
2018-01-28T00:31:31.200Z,5.68
2018-01-28T00:33:58.121Z,5.45
2018-01-28T00:36:25.040Z,6.35
2018-01-28T00:38:51.972Z,7.62
2018-01-28T00:41:19.641Z,5.90
2018-01-28T00:43:47.327Z,6.03
2018-01-28T00:46:14.236Z,6.30
2018-01-28T00:48:41.176Z,5.47
2018-01-28T00:51:08.076Z,4.43
2018-01-28T00:53:35.003Z,3.78
2018-01-28T00:56:01.917Z,5.45
2018-01-28T00:58:28.846Z,3.90
2018-01-28T01:00:55.752Z,6.43
2018-01-28T01:03:22.680Z,4.68
2018-01-28T01:05:49.596Z,5.90
2018-01-28T01:08:16.528Z,6.00
2018-01-28T01:10:43.464Z,5.28
2018-01-28T01:13:10.424Z,4.87
2018-01-28T01:15:37.365Z,5.43
2018-01-28T01:18:04.301Z,5.03
2018-01-28T01:20:31.204Z,6.00
2018-01-28T01:22:58.139Z,4.20
2018-01-28T01:25:25.057Z,6.00
2018-01-28T01:27:52.758Z,4.70
2018-01-28T01:30:19.660Z,5.45
2018-01-28T01:32:46.596Z,5.15
2018-01-28T01:35:13.496Z,6.00
2018-01-28T01:37:41.444Z,4.43
2018-01-28T01:40:08.348Z,6.25
2018-01-28T01:42:36.265Z,5.15
2018-01-28T01:45:03.191Z,6.35
2018-01-28T01:47:30.142Z,9.03
2018-01-28T01:49:57.045Z,6.62
2018-01-28T01:52:23.980Z,5.80
2018-01-28T01:54:51.881Z,6.85
2018-01-28T01:57:20.594Z,8.05
2018-01-28T01:59:47.516Z,6.90
2018-01-28T02:02:15.212Z,7.35
2018-01-28T02:04:42.120Z,9.63
2018-01-28T02:07:09.820Z,11.15
2018-01-28T02:09:36.732Z,12.45
2018-01-28T02:12:04.435Z,10.38
2018-01-28T02:14:32.346Z,7.20
2018-01-28T02:16:59.281Z,10.18
2018-01-28T02:19:26.189Z,12.30
2018-01-28T02:21:53.119Z,10.98
2018-01-28T02:24:20.020Z,12.95
2018-01-28T02:26:46.946Z,10.40
2018-01-28T02:29:13.852Z,12.98
2018-01-28T02:31:40.784Z,12.20
2018-01-28T02:34:07.687Z,13.43
2018-01-28T02:36:34.626Z,14.20
2018-01-28T02:39:04.852Z,10.40
2018-01-28T02:41:31.800Z,12.30
2018-01-28T02:43:58.704Z,10.75
2018-01-28T02:46:25.640Z,16.27
2018-01-28T02:48:52.564Z,13.38
2018-01-28T02:51:19.503Z,11.80
2018-01-28T02:53:48.216Z,10.57
2018-01-28T02:56:15.880Z,7.72
2018-01-28T02:58:42.783Z,11.75
2018-01-28T03:01:10.490Z,11.07
2018-01-28T03:03:37.404Z,9.95
2018-01-28T03:06:04.308Z,8.38
2018-01-28T03:08:31.239Z,10.43
2018-01-28T03:11:00.074Z,11.38
2018-01-28T03:13:28.768Z,8.60
2018-01-28T03:15:55.680Z,6.05
2018-01-28T03:18:22.622Z,5.55
2018-01-28T03:20:49.553Z,5.62
2018-01-28T03:23:19.683Z,5.37
2018-01-28T03:25:48.126Z,4.70
2018-01-28T03:28:15.033Z,6.43
2018-01-28T03:30:42.717Z,7.62
2018-01-28T03:33:09.616Z,8.55
2018-01-28T03:35:36.531Z,7.30
2018-01-28T03:38:03.439Z,5.72
2018-01-28T03:40:30.396Z,5.97
2018-01-28T03:42:57.298Z,6.80
2018-01-28T03:45:25.173Z,6.80
2018-01-28T03:47:52.855Z,5.00
2018-01-28T03:50:19.772Z,8.15
2018-01-28T03:52:46.672Z,7.32
2018-01-28T03:55:13.596Z,4.78
2018-01-28T03:57:40.495Z,5.50
2018-01-28T04:00:08.388Z,5.93
2018-01-28T04:02:36.063Z,7.00
2018-01-28T04:05:02.993Z,7.80
2018-01-28T04:07:29.908Z,8.02
2018-01-28T04:09:56.824Z,7.85
2018-01-28T04:12:23.728Z,9.32
2018-01-28T04:14:51.421Z,5.43
2018-01-28T04:17:18.332Z,6.62
2018-01-28T04:19:46.919Z,6.70
2018-01-28T04:22:14.583Z,6.70
2018-01-28T04:24:41.516Z,6.03
2018-01-28T04:27:09.190Z,6.90
2018-01-28T04:29:36.119Z,6.15
2018-01-28T04:32:03.795Z,6.00
2018-01-28T04:34:31.476Z,6.65
2018-01-28T04:36:58.383Z,10.90
2018-01-28T04:39:26.070Z,6.30
2018-01-28T04:41:52.966Z,5.22
2018-01-28T04:44:19.883Z,4.90
2018-01-28T04:46:46.787Z,6.28
2018-01-28T04:49:14.472Z,7.07
2018-01-28T04:51:41.371Z,6.62
2018-01-28T04:54:08.271Z,5.95
2018-01-28T04:56:35.183Z,5.65
2018-01-28T04:59:02.107Z,6.75
2018-01-28T05:01:29.010Z,6.03
2018-01-28T05:03:55.931Z,6.43
2018-01-28T05:06:22.848Z,6.50
2018-01-28T05:08:51.444Z,7.97
2018-01-28T05:11:19.120Z,6.07
2018-01-28T05:13:46.025Z,6.80
2018-01-28T05:16:13.723Z,6.15
2018-01-28T05:18:40.628Z,5.53
2018-01-28T05:21:07.549Z,8.52
2018-01-28T05:23:34.498Z,6.32
2018-01-28T05:26:01.394Z,7.80
2018-01-28T05:28:28.320Z,6.03
2018-01-28T05:30:55.978Z,5.80
2018-01-28T05:33:22.876Z,6.97
2018-01-28T05:35:49.772Z,6.90
2018-01-28T05:38:17.459Z,8.90
2018-01-28T05:40:44.364Z,9.40
2018-01-28T05:43:11.289Z,7.00
2018-01-28T05:45:39.217Z,7.15
2018-01-28T05:48:06.870Z,4.37
2018-01-28T05:50:33.796Z,5.25
2018-01-28T05:53:01.473Z,7.70
2018-01-28T05:55:28.392Z,7.55
2018-01-28T05:57:55.296Z,6.53
2018-01-28T06:00:22.212Z,5.95
2018-01-28T06:02:49.119Z,6.87
2018-01-28T06:05:16.045Z,6.55
2018-01-28T06:07:42.956Z,5.62
2018-01-28T06:10:09.870Z,6.87
2018-01-28T06:12:37.531Z,8.07
2018-01-28T06:15:05.212Z,4.60
2018-01-28T06:17:32.116Z,8.25
2018-01-28T06:19:59.032Z,6.57
2018-01-28T06:22:27.855Z,6.35
2018-01-28T06:24:54.763Z,5.43
2018-01-28T06:27:22.678Z,6.97
2018-01-28T06:29:50.347Z,5.40
2018-01-28T06:32:18.028Z,6.30
2018-01-28T06:34:44.931Z,7.45
2018-01-28T06:37:15.368Z,10.15
2018-01-28T06:39:42.273Z,5.82
2018-01-28T06:42:09.182Z,6.85
2018-01-28T06:44:37.140Z,4.72
2018-01-28T06:47:05.809Z,6.65
2018-01-28T06:49:34.419Z,4.85
2018-01-28T06:52:01.327Z,8.32
2018-01-28T06:54:28.256Z,6.37
2018-01-28T06:56:55.161Z,7.00
2018-01-28T06:59:22.083Z,6.30
2018-01-28T07:01:49.766Z,7.15
2018-01-28T07:04:16.684Z,6.15
2018-01-28T07:06:44.351Z,5.55
2018-01-28T07:09:13.036Z,6.62
2018-01-28T07:11:39.935Z,5.50
2018-01-28T07:14:06.876Z,6.12
2018-01-28T07:16:34.795Z,8.45
2018-01-28T07:19:02.484Z,7.35
2018-01-28T07:21:29.392Z,6.80
2018-01-28T07:23:58.097Z,4.82
2018-01-28T07:26:25.020Z,4.80
2018-01-28T07:28:52.707Z,4.20
2018-01-28T07:31:19.623Z,3.90
2018-01-28T07:33:46.544Z,5.85
2018-01-28T07:36:13.457Z,4.68
2018-01-28T07:38:40.397Z,5.82
2018-01-28T07:41:07.304Z,6.47
2018-01-28T07:43:36.001Z,4.50
2018-01-28T07:46:02.922Z,5.22
2018-01-28T07:48:30.633Z,5.57
2018-01-28T07:50:57.548Z,6.47
2018-01-28T07:53:24.475Z,5.68
2018-01-28T07:55:51.384Z,6.50
2018-01-28T07:58:19.308Z,6.97
2018-01-28T08:00:46.224Z,4.93
2018-01-28T08:03:13.172Z,5.70
2018-01-28T08:05:40.096Z,6.45
2018-01-28T08:08:07.015Z,5.97
2018-01-28T08:10:33.919Z,7.20
2018-01-28T08:13:01.605Z,5.15
2018-01-28T08:15:28.624Z,5.10
2018-01-28T08:17:57.144Z,6.60
2018-01-28T08:20:24.061Z,7.25
2018-01-28T08:22:50.993Z,8.20
2018-01-28T08:25:18.668Z,6.30
2018-01-28T08:27:45.584Z,7.93
2018-01-28T08:30:13.480Z,6.90
2018-01-28T08:32:41.344Z,7.57
2018-01-28T08:35:08.249Z,7.53
2018-01-28T08:37:35.164Z,5.82
2018-01-28T08:40:02.068Z,5.95
2018-01-28T08:42:29.760Z,4.95
2018-01-28T08:44:56.649Z,5.87
2018-01-28T08:47:23.554Z,5.78
2018-01-28T08:49:50.450Z,6.10
2018-01-28T08:52:18.130Z,7.00
2018-01-28T08:54:45.804Z,6.22
2018-01-28T08:57:13.656Z,5.00
2018-01-28T08:59:41.325Z,6.68
2018-01-28T09:02:10.204Z,7.30
2018-01-28T09:04:37.114Z,7.68
2018-01-28T09:07:04.049Z,3.72
2018-01-28T09:09:31.952Z,7.45
2018-01-28T09:11:59.657Z,6.57
2018-01-28T09:14:26.570Z,6.85
2018-01-28T09:16:53.496Z,7.05
2018-01-28T09:19:20.410Z,4.32
2018-01-28T09:21:47.333Z,7.50
2018-01-28T09:24:14.241Z,5.50
2018-01-28T09:26:46.796Z,5.28
2018-01-28T09:29:14.644Z,5.90
2018-01-28T09:31:42.337Z,4.60
2018-01-28T09:34:09.246Z,7.62
2018-01-28T09:36:37.944Z,5.57
2018-01-28T09:39:05.611Z,7.30
2018-01-28T09:41:33.300Z,4.37
2018-01-28T09:44:00.219Z,5.47
2018-01-28T09:46:27.141Z,7.72
2018-01-28T09:48:54.056Z,6.70
2018-01-28T09:51:21.971Z,6.12
2018-01-28T09:53:48.880Z,4.87
2018-01-28T09:56:16.534Z,5.03
2018-01-28T09:58:43.451Z,7.62
2018-01-28T10:01:10.368Z,6.15
2018-01-28T10:03:37.272Z,8.25
2018-01-28T10:06:04.209Z,6.60
2018-01-28T10:08:31.128Z,6.03
2018-01-28T10:10:58.056Z,5.05
2018-01-28T10:13:24.972Z,5.65
2018-01-28T10:15:52.684Z,6.95
2018-01-28T10:18:20.619Z,8.18
2018-01-28T10:20:47.540Z,5.40
2018-01-28T10:23:15.416Z,9.57
2018-01-28T10:25:43.110Z,4.72
2018-01-28T10:28:10.016Z,9.75
2018-01-28T10:30:37.724Z,6.57
2018-01-28T10:33:04.648Z,5.90
2018-01-28T10:35:31.599Z,6.20
2018-01-28T10:37:58.508Z,7.45
2018-01-28T10:40:26.175Z,5.72
2018-01-28T10:42:53.095Z,5.03
2018-01-28T10:45:20.024Z,6.68
2018-01-28T10:47:47.005Z,6.05
2018-01-28T10:50:14.675Z,9.75
2018-01-28T10:52:42.364Z,5.68
2018-01-28T10:55:09.272Z,8.90
2018-01-28T10:57:36.965Z,5.90
2018-01-28T11:00:04.811Z,6.20
2018-01-28T11:02:32.508Z,6.22
2018-01-28T11:04:59.471Z,7.05
2018-01-28T11:07:26.385Z,4.43
2018-01-28T11:09:54.216Z,7.15
2018-01-28T11:12:22.103Z,7.60
2018-01-28T11:14:49.018Z,7.68
2018-01-28T11:17:15.947Z,5.45
2018-01-28T11:19:42.855Z,4.50
2018-01-28T11:22:10.733Z,6.00
2018-01-28T11:24:38.668Z,5.37
2018-01-28T11:27:05.596Z,7.37
2018-01-28T11:29:32.589Z,7.25
2018-01-28T11:31:59.553Z,6.35
2018-01-28T11:34:26.472Z,7.72
2018-01-28T11:36:53.400Z,7.80
2018-01-28T11:39:20.312Z,8.50
2018-01-28T11:41:47.241Z,5.95
2018-01-28T11:44:14.139Z,8.30
2018-01-28T11:46:41.072Z,6.07
2018-01-28T11:49:07.989Z,4.12
2018-01-28T11:51:34.929Z,7.70
2018-01-28T11:54:01.840Z,5.53
2018-01-28T11:56:29.784Z,6.05
2018-01-28T11:58:57.456Z,5.22
2018-01-28T12:01:24.387Z,7.22
2018-01-28T12:03:52.093Z,5.90
2018-01-28T12:06:20.034Z,8.80
2018-01-28T12:08:46.932Z,5.10
2018-01-28T12:11:13.867Z,5.47
2018-01-28T12:13:41.693Z,5.65
2018-01-28T12:16:08.616Z,6.70
2018-01-28T12:18:36.296Z,7.82
2018-01-28T12:21:03.224Z,4.95
2018-01-28T12:23:30.904Z,6.50
2018-01-28T12:25:57.843Z,7.68
2018-01-28T12:28:24.759Z,6.65
2018-01-28T12:30:52.639Z,7.95
2018-01-28T12:33:20.316Z,8.32
2018-01-28T12:35:47.271Z,5.60
2018-01-28T12:38:14.188Z,5.80
2018-01-28T12:40:41.888Z,5.78
2018-01-28T12:43:08.813Z,5.82
2018-01-28T12:45:35.735Z,7.55
2018-01-28T12:48:04.323Z,4.62
2018-01-28T12:50:32.042Z,7.28
2018-01-28T12:52:59.940Z,6.70
2018-01-28T12:55:27.649Z,6.40
2018-01-28T12:57:54.552Z,7.10
2018-01-28T13:00:22.247Z,7.90
2018-01-28T13:02:49.156Z,10.38
2018-01-28T13:05:16.852Z,8.38
2018-01-28T13:07:43.764Z,8.60
2018-01-28T13:10:11.456Z,8.60
2018-01-28T13:12:38.366Z,8.35
2018-01-28T13:15:06.062Z,8.90
2018-01-28T13:17:32.972Z,6.22
2018-01-28T13:20:00.666Z,8.55
2018-01-28T13:22:27.576Z,8.70
2018-01-28T13:24:55.267Z,7.68
2018-01-28T13:27:23.021Z,7.12
2018-01-28T13:29:50.707Z,7.62
2018-01-28T13:32:17.608Z,8.90
2018-01-28T13:34:45.299Z,9.18
2018-01-28T13:37:12.226Z,6.57
2018-01-28T13:39:39.927Z,7.90
2018-01-28T13:42:06.836Z,8.90
2018-01-28T13:44:34.511Z,7.80
2018-01-28T13:47:01.436Z,5.20
2018-01-28T13:49:30.131Z,10.45
2018-01-28T13:51:57.058Z,9.43
2018-01-28T13:54:24.743Z,8.05
2018-01-28T13:56:51.654Z,7.90
2018-01-28T13:59:18.574Z,7.78
2018-01-28T14:01:45.481Z,7.40
2018-01-28T14:04:12.429Z,7.93
2018-01-28T14:06:39.339Z,7.70
2018-01-28T14:09:07.036Z,9.75
2018-01-28T14:11:33.943Z,10.25
2018-01-28T14:14:01.772Z,5.72
2018-01-28T14:16:28.679Z,6.93
2018-01-28T14:18:55.599Z,7.32
2018-01-28T14:21:26.412Z,7.87
2018-01-28T14:23:53.338Z,6.10
2018-01-28T14:26:21.016Z,6.35
2018-01-28T14:28:47.951Z,8.38
2018-01-28T14:31:14.864Z,7.68
2018-01-28T14:33:41.808Z,8.13
2018-01-28T14:36:10.678Z,7.65
2018-01-28T14:38:39.370Z,6.43
2018-01-28T14:41:06.277Z,7.87
2018-01-28T14:43:33.195Z,8.13
2018-01-28T14:46:00.115Z,7.80
2018-01-28T14:48:27.036Z,4.65
2018-01-28T14:50:53.948Z,5.10
2018-01-28T14:53:20.869Z,6.40
2018-01-28T14:55:47.800Z,7.00
2018-01-28T14:58:14.743Z,8.05
2018-01-28T15:00:41.663Z,6.97
2018-01-28T15:03:08.591Z,6.00
2018-01-28T15:05:36.272Z,7.05
2018-01-28T15:08:03.954Z,5.35
2018-01-28T15:10:31.799Z,6.57
2018-01-28T15:13:00.475Z,5.15
2018-01-28T15:15:28.181Z,6.28
2018-01-28T15:17:55.097Z,6.90
2018-01-28T15:20:22.076Z,7.80
2018-01-28T15:22:49.865Z,5.72
2018-01-28T15:25:16.808Z,5.57
2018-01-28T15:27:43.716Z,5.55
2018-01-28T15:30:10.628Z,6.65
2018-01-28T15:32:38.320Z,7.65
2018-01-28T15:35:05.240Z,5.97
2018-01-28T15:37:33.144Z,4.28
2018-01-28T15:40:00.084Z,4.62
2018-01-28T15:42:26.992Z,5.60
2018-01-28T15:44:53.907Z,5.25
2018-01-28T15:47:20.830Z,4.40
2018-01-28T15:49:47.761Z,5.45
2018-01-28T15:52:14.672Z,4.45
2018-01-28T15:54:42.357Z,5.90
2018-01-28T15:57:09.255Z,5.40
2018-01-28T15:59:36.179Z,5.80
2018-01-28T16:02:04.075Z,4.05
2018-01-28T16:04:31.781Z,4.78
2018-01-28T16:06:58.701Z,2.87
2018-01-28T16:09:25.600Z,3.70
2018-01-28T16:11:53.431Z,3.12
2018-01-28T16:14:20.340Z,3.70
2018-01-28T16:16:51.586Z,3.90
2018-01-28T16:19:22.319Z,3.17
2018-01-28T16:21:51.970Z,4.82
2018-01-28T16:24:18.872Z,4.32
2018-01-28T16:26:46.700Z,5.85
2018-01-28T16:29:13.639Z,3.50
2018-01-28T16:31:41.548Z,3.72
2018-01-28T16:34:09.240Z,4.55
2018-01-28T16:36:38.116Z,4.45
2018-01-28T16:39:05.053Z,4.35
2018-01-28T16:41:36.576Z,4.07
2018-01-28T16:44:03.504Z,3.83
2018-01-28T16:46:30.413Z,5.82
2018-01-28T16:48:57.332Z,3.45
2018-01-28T16:51:24.243Z,3.87
2018-01-28T16:53:52.182Z,4.47
2018-01-28T16:56:20.028Z,4.60
2018-01-28T16:58:47.899Z,3.75
2018-01-28T17:01:14.846Z,3.15
2018-01-28T17:03:41.791Z,3.12
2018-01-28T17:06:08.727Z,4.57
2018-01-28T17:08:39.253Z,3.35
2018-01-28T17:11:11.921Z,3.00
2018-01-28T17:13:39.605Z,2.42
2018-01-28T17:16:06.515Z,2.20
2018-01-28T17:18:37.273Z,2.10
2018-01-28T17:21:04.176Z,2.62
2018-01-28T17:23:31.087Z,2.40
2018-01-28T17:25:58.005Z,2.90
2018-01-28T17:28:24.936Z,2.70
2018-01-28T17:30:51.831Z,3.28
2018-01-28T17:33:18.761Z,2.35
2018-01-28T17:35:45.664Z,3.37
2018-01-28T17:38:12.606Z,3.22
2018-01-28T17:40:40.268Z,2.12
2018-01-28T17:43:07.964Z,3.00
2018-01-28T17:45:35.787Z,3.53
2018-01-28T17:48:04.485Z,3.15
2018-01-28T17:50:32.164Z,2.58
2018-01-28T17:52:59.097Z,3.50
2018-01-28T17:55:26.787Z,3.22
2018-01-28T17:57:53.721Z,3.50
2018-01-28T18:00:20.649Z,2.92
2018-01-28T18:02:47.576Z,2.60
2018-01-28T18:05:18.324Z,3.40
2018-01-28T18:07:45.260Z,2.72
2018-01-28T18:10:13.872Z,3.83
2018-01-28T18:12:40.778Z,2.75
2018-01-28T18:15:08.670Z,2.30
2018-01-28T18:17:35.608Z,3.62
2018-01-28T18:20:03.301Z,3.28
2018-01-28T18:22:30.240Z,3.33
2018-01-28T18:24:58.061Z,3.35
2018-01-28T18:27:24.984Z,3.70
2018-01-28T18:29:52.881Z,3.60
2018-01-28T18:32:20.577Z,3.45
2018-01-28T18:34:48.404Z,4.32
2018-01-28T18:37:16.104Z,4.80
2018-01-28T18:39:43.017Z,4.03
2018-01-28T18:42:09.957Z,4.47
2018-01-28T18:44:37.624Z,4.90
2018-01-28T18:47:05.310Z,3.92
2018-01-28T18:49:32.228Z,4.55
2018-01-28T18:52:00.840Z,5.53
2018-01-28T18:54:27.769Z,4.90
2018-01-28T18:56:54.693Z,4.65
2018-01-28T18:59:21.605Z,6.00
2018-01-28T19:01:48.548Z,6.43
2018-01-28T19:04:15.569Z,4.50
2018-01-28T19:06:42.497Z,5.78
2018-01-28T19:09:10.339Z,6.35
2018-01-28T19:11:38.058Z,5.50
2018-01-28T19:14:04.990Z,5.95
2018-01-28T19:16:31.936Z,6.20
2018-01-28T19:18:59.776Z,7.07
2018-01-28T19:21:27.649Z,5.75
2018-01-28T19:23:54.560Z,7.72
2018-01-28T19:26:22.500Z,6.65
2018-01-28T19:28:49.412Z,7.37
2018-01-28T19:31:16.341Z,6.45
2018-01-28T19:33:44.015Z,4.40
2018-01-28T19:36:11.922Z,5.50
2018-01-28T19:38:38.861Z,4.60
2018-01-28T19:41:06.800Z,5.75
2018-01-28T19:43:33.708Z,4.87
2018-01-28T19:46:01.445Z,5.25
2018-01-28T19:48:28.349Z,6.00
2018-01-28T19:50:55.288Z,7.50
2018-01-28T19:53:22.189Z,5.30
2018-01-28T19:55:50.088Z,5.20
2018-01-28T19:58:17.796Z,5.37
2018-01-28T20:00:44.712Z,5.68
2018-01-28T20:03:11.657Z,6.10
2018-01-28T20:05:44.346Z,5.82
2018-01-28T20:08:13.205Z,5.43
2018-01-28T20:10:40.893Z,5.53
2018-01-28T20:13:07.818Z,5.75
2018-01-28T20:15:34.738Z,5.70
2018-01-28T20:18:01.659Z,4.07
2018-01-28T20:20:30.595Z,5.35
2018-01-28T20:22:58.452Z,6.20
2018-01-28T20:25:26.153Z,6.07
2018-01-28T20:27:53.066Z,5.68
2018-01-28T20:30:19.998Z,6.70
2018-01-28T20:32:47.681Z,6.12
2018-01-28T20:35:21.964Z,5.35
2018-01-28T20:37:49.831Z,6.15
2018-01-28T20:40:16.791Z,4.53
2018-01-28T20:42:43.713Z,5.50
2018-01-28T20:45:10.663Z,4.50
2018-01-28T20:47:37.578Z,4.32
2018-01-28T20:50:04.489Z,3.95
2018-01-28T20:52:31.429Z,3.75
2018-01-28T20:57:31.655Z,4.28
2018-01-28T21:00:00.232Z,5.55
2018-01-28T21:02:27.909Z,4.78
2018-01-28T21:04:55.768Z,5.07
2018-01-28T21:07:23.440Z,3.47
2018-01-28T21:09:50.360Z,4.05
2018-01-28T21:12:19.249Z,3.92
2018-01-28T21:14:46.188Z,4.00
2018-01-28T21:17:13.876Z,4.25
2018-01-28T21:19:41.565Z,4.10
2018-01-28T21:22:08.484Z,4.07
2018-01-28T21:24:36.352Z,3.72
2018-01-28T21:27:03.267Z,4.28
2018-01-28T21:29:30.196Z,3.55
2018-01-28T21:31:57.124Z,3.97
2018-01-28T21:34:24.043Z,3.80
2018-01-28T21:36:50.972Z,2.85
2018-01-28T21:39:18.634Z,2.97
2018-01-28T21:41:45.561Z,3.47
2018-01-28T21:44:13.427Z,2.75
2018-01-28T21:46:41.120Z,3.30
2018-01-28T21:49:08.960Z,3.20
2018-01-28T21:51:36.825Z,3.50
2018-01-28T21:54:04.500Z,4.50
2018-01-28T21:56:31.453Z,4.32
2018-01-28T21:58:58.499Z,4.80
2018-01-28T22:01:26.390Z,5.03
2018-01-28T22:03:53.340Z,4.65
2018-01-28T22:06:20.279Z,3.55
2018-01-28T22:08:47.257Z,4.30
2018-01-28T22:11:14.970Z,4.12
2018-01-28T22:13:41.908Z,3.85
2018-01-28T22:16:08.829Z,4.32
2018-01-28T22:18:36.565Z,3.78
2018-01-28T22:21:04.561Z,3.08
2018-01-28T22:23:31.674Z,3.55
2018-01-28T22:25:59.392Z,3.37
2018-01-28T22:28:26.341Z,3.12
2018-01-28T22:30:56.398Z,2.20
2018-01-28T22:33:23.328Z,3.15
2018-01-28T22:35:50.255Z,2.10
2018-01-28T22:38:17.179Z,3.05
2018-01-28T22:40:44.111Z,3.78
2018-01-28T22:43:11.033Z,3.60
2018-01-28T22:45:38.742Z,4.25
2018-01-28T22:48:05.667Z,2.78
2018-01-28T22:50:32.588Z,4.80
2018-01-28T22:52:59.508Z,3.80
2018-01-28T22:55:27.440Z,4.57
2018-01-28T22:57:54.352Z,4.72
2018-01-28T23:00:22.059Z,5.78
2018-01-28T23:02:49.753Z,4.93
2018-01-28T23:05:17.600Z,4.90
2018-01-28T23:07:44.512Z,6.22
2018-01-28T23:10:12.209Z,5.37
2018-01-28T23:12:39.126Z,5.10
2018-01-28T23:15:06.082Z,4.20
2018-01-28T23:17:32.998Z,4.43
2018-01-28T23:20:00.692Z,3.78
2018-01-28T23:22:27.599Z,5.20
2018-01-28T23:24:55.297Z,3.87
2018-01-28T23:27:22.216Z,4.47
2018-01-28T23:29:49.908Z,3.35
2018-01-28T23:32:16.817Z,3.90
2018-01-28T23:34:45.521Z,3.75
2018-01-28T23:37:12.456Z,3.95
2018-01-28T23:39:39.390Z,5.07
2018-01-28T23:42:07.065Z,4.75
2018-01-28T23:44:35.078Z,4.85
2018-01-28T23:47:03.006Z,5.18
2018-01-28T23:49:29.947Z,4.60
2018-01-28T23:51:56.866Z,5.97
2018-01-28T23:54:23.808Z,7.05
2018-01-28T23:56:50.731Z,7.10
2018-01-28T23:59:19.372Z,4.28
